createdAt,value
2023-02-22T00:00:55.987Z,47.75
2023-02-22T00:03:32.053Z,47.55
2023-02-22T00:06:03.301Z,47.93
2023-02-22T00:08:35.280Z,47.46
2023-02-22T00:11:09.189Z,47.49
2023-02-22T00:13:39.303Z,47.78
2023-02-22T00:16:07.320Z,47.71
2023-02-22T00:18:34.502Z,48.00
2023-02-22T00:21:01.899Z,47.78
2023-02-22T00:23:31.850Z,47.88
2023-02-22T00:26:00.912Z,47.94
2023-02-22T00:28:28.618Z,48.02
2023-02-22T00:30:55.846Z,47.84
2023-02-22T00:33:23.747Z,48.11
2023-02-22T00:35:51.178Z,48.23
2023-02-22T00:38:19.775Z,48.12
2023-02-22T00:40:46.965Z,48.42
2023-02-22T00:43:15.172Z,48.48
2023-02-22T00:45:42.792Z,48.49
2023-02-22T00:48:11.087Z,48.25
2023-02-22T00:50:39.917Z,48.30
2023-02-22T00:53:07.804Z,48.48
2023-02-22T00:55:40.929Z,48.52
2023-02-22T00:58:09.869Z,48.38
2023-02-22T01:00:41.827Z,48.45
2023-02-22T01:03:13.425Z,48.35
2023-02-22T01:05:40.935Z,48.19
2023-02-22T01:08:11.594Z,48.24
2023-02-22T01:10:40.426Z,48.55
2023-02-22T01:13:09.829Z,48.48
2023-02-22T01:15:40.948Z,48.54
2023-02-22T01:18:09.014Z,48.13
2023-02-22T01:20:37.156Z,48.18
2023-02-22T01:23:06.660Z,48.20
2023-02-22T01:25:35.525Z,48.39
2023-02-22T01:28:05.993Z,48.34
2023-02-22T01:30:36.481Z,48.05
2023-02-22T01:33:07.167Z,48.28
2023-02-22T01:35:37.804Z,48.36
2023-02-22T01:38:05.292Z,48.49
2023-02-22T01:40:37.568Z,48.88
2023-02-22T01:43:24.259Z,48.84
2023-02-22T01:46:23.013Z,48.53
2023-02-22T01:49:03.128Z,48.23
2023-02-22T01:51:39.344Z,47.97
2023-02-22T01:54:14.906Z,48.16
2023-02-22T01:57:07.518Z,48.60
2023-02-22T01:59:40.656Z,48.59
2023-02-22T02:02:08.122Z,48.75
2023-02-22T02:04:36.373Z,48.83
2023-02-22T02:07:08.005Z,48.88
2023-02-22T02:09:54.453Z,49.03
2023-02-22T02:12:23.869Z,49.06
2023-02-22T02:14:51.262Z,49.24
2023-02-22T02:22:19.397Z,48.39
2023-02-22T02:29:45.380Z,48.17
2023-02-22T02:36:25.041Z,48.64
2023-02-22T02:39:13.671Z,49.01
2023-02-22T02:41:48.068Z,49.07
2023-02-22T02:44:28.548Z,49.01
2023-02-22T02:47:06.252Z,48.89
2023-02-22T02:49:51.735Z,49.41
2023-02-22T02:52:24.017Z,49.21
2023-02-22T02:54:53.408Z,49.18
2023-02-22T02:57:20.794Z,49.14
2023-02-22T02:59:48.127Z,49.23
2023-02-22T03:10:42.767Z,49.49
2023-02-22T03:13:26.906Z,49.79
2023-02-22T03:20:29.924Z,49.50
2023-02-22T03:23:16.806Z,49.32
2023-02-22T03:25:52.967Z,49.34
2023-02-22T03:28:25.702Z,49.73
2023-02-22T03:35:55.718Z,49.81
2023-02-22T03:38:29.460Z,49.52
2023-02-22T03:45:05.299Z,50.02
2023-02-22T03:47:47.892Z,49.70
2023-02-22T03:50:28.619Z,49.53
2023-02-22T03:52:57.643Z,49.49
2023-02-22T03:55:25.669Z,49.33
2023-02-22T03:58:03.109Z,49.54
2023-02-22T04:00:34.345Z,49.88
2023-02-22T04:03:02.344Z,49.87
2023-02-22T04:09:10.585Z,49.73
2023-02-22T04:11:38.060Z,49.71
2023-02-22T04:14:14.189Z,49.47
2023-02-22T04:16:41.564Z,49.70
2023-02-22T04:23:42.794Z,49.96
2023-02-22T04:30:19.588Z,50.00
2023-02-22T04:32:46.940Z,49.93
2023-02-22T04:35:14.239Z,49.71
2023-02-22T04:37:41.526Z,49.81
2023-02-22T04:44:14.884Z,49.79
2023-02-22T04:46:42.133Z,50.24
2023-02-22T04:49:09.837Z,49.92
2023-02-22T05:03:54.635Z,50.40
2023-02-22T05:06:22.039Z,50.31
2023-02-22T05:12:50.129Z,50.58
2023-02-22T05:15:21.875Z,50.53
2023-02-22T05:21:55.752Z,50.33
2023-02-22T05:24:23.422Z,50.28
2023-02-22T05:30:59.608Z,50.35
2023-02-22T05:37:26.789Z,50.79
2023-02-22T05:39:53.992Z,50.61
2023-02-22T05:46:27.717Z,51.06
2023-02-22T05:48:54.987Z,50.63
2023-02-22T05:55:24.383Z,50.66
2023-02-22T05:57:52.563Z,50.76
2023-02-22T06:00:29.718Z,50.60
2023-02-22T06:03:06.471Z,50.64
2023-02-22T06:05:34.478Z,50.48
2023-02-22T06:16:58.485Z,50.66
2023-02-22T06:19:25.664Z,51.21
2023-02-22T06:21:56.621Z,50.81
2023-02-22T06:24:24.294Z,50.90
2023-02-22T06:27:01.196Z,50.71
2023-02-22T06:29:29.617Z,50.73
2023-02-22T06:31:56.953Z,50.31
2023-02-22T06:34:24.549Z,50.59
2023-02-22T06:36:51.816Z,50.78
2023-02-22T06:39:19.501Z,50.94
2023-02-22T06:41:48.413Z,50.52
2023-02-22T06:44:15.904Z,50.84
2023-02-22T06:46:49.579Z,51.12
2023-02-22T06:49:17.916Z,50.95
2023-02-22T06:51:46.237Z,51.34
2023-02-22T06:54:13.845Z,50.92
2023-02-22T06:56:41.319Z,51.17
2023-02-22T06:59:08.619Z,51.12
2023-02-22T07:01:36.084Z,50.72
2023-02-22T07:04:03.761Z,50.88
2023-02-22T07:06:31.144Z,50.75
2023-02-22T07:08:58.523Z,50.52
2023-02-22T07:11:25.797Z,50.54
2023-02-22T07:13:53.115Z,50.62
2023-02-22T07:16:20.426Z,51.13
2023-02-22T07:18:47.898Z,51.27
2023-02-22T07:21:15.568Z,51.12
2023-02-22T07:23:51.556Z,50.88
2023-02-22T07:26:19.442Z,50.92
2023-02-22T07:28:47.099Z,51.14
2023-02-22T07:31:14.781Z,50.79
2023-02-22T07:33:42.478Z,50.44
2023-02-22T07:36:10.597Z,50.42
2023-02-22T07:38:37.811Z,50.31
2023-02-22T07:41:05.327Z,50.93
2023-02-22T07:43:32.627Z,50.85
2023-02-22T07:46:01.758Z,50.71
2023-02-22T07:48:31.758Z,51.01
2023-02-22T07:50:59.747Z,51.06
2023-02-22T07:53:31.676Z,50.64
2023-02-22T07:56:03.300Z,50.49
2023-02-22T07:58:33.258Z,50.98
2023-02-22T08:01:01.203Z,50.65
2023-02-22T08:03:33.095Z,50.28
2023-02-22T08:06:00.387Z,49.83
2023-02-22T08:08:27.652Z,50.52
2023-02-22T08:10:55.833Z,50.14
2023-02-22T08:13:24.031Z,50.02
2023-02-22T08:15:53.994Z,49.92
2023-02-22T08:18:23.496Z,49.79
2023-02-22T08:20:53.496Z,49.60
2023-02-22T08:23:27.224Z,49.69
2023-02-22T08:25:55.726Z,49.81
2023-02-22T08:28:25.291Z,49.84
2023-02-22T08:30:53.704Z,49.56
2023-02-22T08:33:21.251Z,49.19
2023-02-22T08:35:49.786Z,49.96
2023-02-22T08:38:28.191Z,49.60
2023-02-22T08:40:56.174Z,49.68
2023-02-22T08:43:24.584Z,49.60
2023-02-22T08:45:52.978Z,49.40
2023-02-22T08:48:21.397Z,49.01
2023-02-22T08:50:48.758Z,49.32
2023-02-22T08:53:16.708Z,49.19
2023-02-22T08:55:45.075Z,49.35
2023-02-22T08:58:32.454Z,49.31
2023-02-22T09:01:00.039Z,49.53
2023-02-22T09:03:27.459Z,49.58
2023-02-22T09:06:30.607Z,48.87
2023-02-22T09:09:04.248Z,48.57
2023-02-22T09:11:31.449Z,48.33
2023-02-22T09:13:58.878Z,48.37
2023-02-22T09:16:26.100Z,47.83
2023-02-22T09:19:07.441Z,47.08
2023-02-22T09:21:34.772Z,46.85
2023-02-22T09:24:05.330Z,46.19
2023-02-22T09:26:32.556Z,45.92
2023-02-22T09:29:07.560Z,45.83
2023-02-22T09:35:34.454Z,44.98
2023-02-22T09:38:03.593Z,44.47
2023-02-22T09:40:34.588Z,43.95
2023-02-22T09:43:26.543Z,43.75
2023-02-22T09:50:22.905Z,43.10
2023-02-22T09:53:42.360Z,42.58
2023-02-22T09:56:29.743Z,41.83
2023-02-22T09:59:03.349Z,42.01
2023-02-22T10:05:39.644Z,43.26
2023-02-22T10:08:14.158Z,42.77
2023-02-22T10:11:34.606Z,42.49
2023-02-22T10:14:10.894Z,41.93
2023-02-22T10:17:09.314Z,41.62
2023-02-22T10:20:22.057Z,42.36
2023-02-22T10:23:20.021Z,42.51
2023-02-22T10:26:15.218Z,42.11
2023-02-22T10:28:59.600Z,41.51
2023-02-22T10:31:46.353Z,42.06
2023-02-22T10:34:26.335Z,41.64
2023-02-22T10:37:19.561Z,42.34
2023-02-22T10:39:51.089Z,41.75
2023-02-22T10:42:22.117Z,41.95
2023-02-22T10:44:49.563Z,42.05
2023-02-22T10:47:21.934Z,42.68
2023-02-22T10:50:01.477Z,42.21
2023-02-22T10:52:32.881Z,42.33
2023-02-22T10:55:14.558Z,42.05
2023-02-22T10:57:47.706Z,42.41
2023-02-22T11:00:31.657Z,41.86
2023-02-22T11:03:03.688Z,42.15
2023-02-22T11:05:40.709Z,41.73
2023-02-22T11:08:25.950Z,41.95
2023-02-22T11:11:01.933Z,41.74
2023-02-22T11:13:38.209Z,41.83
2023-02-22T11:16:38.514Z,41.83
2023-02-22T11:19:32.739Z,41.05
2023-02-22T11:22:06.084Z,40.83
2023-02-22T11:24:48.507Z,40.65
2023-02-22T11:27:35.001Z,40.01
2023-02-22T11:30:25.998Z,38.60
2023-02-22T11:33:16.072Z,36.06
2023-02-22T11:36:02.116Z,33.19
2023-02-22T11:38:35.695Z,29.82
2023-02-22T11:41:20.840Z,28.31
2023-02-22T11:43:51.253Z,27.43
2023-02-22T11:46:33.548Z,25.92
2023-02-22T11:49:12.649Z,25.20
2023-02-22T11:52:10.435Z,23.63
2023-02-22T11:55:17.591Z,23.24
2023-02-22T11:58:00.582Z,23.23
2023-02-22T12:01:08.475Z,22.69
2023-02-22T12:04:23.693Z,21.86
2023-02-22T12:07:44.771Z,20.57
2023-02-22T12:10:15.363Z,20.71
2023-02-22T12:12:51.915Z,19.61
2023-02-22T12:15:38.559Z,20.03
2023-02-22T12:18:39.684Z,18.83
2023-02-22T12:21:16.913Z,19.22
2023-02-22T12:24:10.272Z,19.11
2023-02-22T12:26:48.638Z,19.42
2023-02-22T12:29:41.785Z,19.52
2023-02-22T12:32:12.112Z,18.93
2023-02-22T12:34:42.249Z,18.83
2023-02-22T12:37:54.660Z,18.06
2023-02-22T12:40:38.089Z,18.24
2023-02-22T12:43:32.690Z,17.27
2023-02-22T12:46:15.375Z,18.32
2023-02-22T12:49:21.870Z,17.91
2023-02-22T12:52:46.603Z,17.64
2023-02-22T12:55:23.784Z,18.58
2023-02-22T12:58:05.050Z,18.60
2023-02-22T13:01:20.288Z,18.29
2023-02-22T13:03:48.089Z,19.91
2023-02-22T13:06:30.984Z,20.41
2023-02-22T13:09:41.323Z,21.42
2023-02-22T13:13:08.018Z,22.62
2023-02-22T13:16:33.493Z,22.43
2023-02-22T13:19:18.416Z,22.18
2023-02-22T13:26:08.869Z,21.22
2023-02-22T13:28:48.324Z,20.94
2023-02-22T13:35:51.875Z,22.10
2023-02-22T13:39:19.285Z,23.12
2023-02-22T13:42:08.772Z,23.18
2023-02-22T13:44:38.676Z,24.04
2023-02-22T13:47:23.933Z,24.43
2023-02-22T13:50:16.256Z,25.11
2023-02-22T13:52:48.050Z,25.03
2023-02-22T13:59:37.244Z,24.92
2023-02-22T14:02:06.379Z,25.22
2023-02-22T14:04:39.579Z,24.82
2023-02-22T14:07:21.901Z,24.12
2023-02-22T14:09:54.878Z,24.28
2023-02-22T14:12:30.898Z,23.53
2023-02-22T14:15:28.314Z,24.17
2023-02-22T14:18:05.345Z,24.83
2023-02-22T14:24:46.799Z,25.65
2023-02-22T14:27:16.086Z,24.94
2023-02-22T14:30:00.482Z,24.91
2023-02-22T14:32:34.507Z,25.53
2023-02-22T14:35:25.503Z,25.96
2023-02-22T14:37:58.058Z,26.21
2023-02-22T14:40:31.746Z,26.54
2023-02-22T14:43:14.819Z,27.35
2023-02-22T14:46:00.214Z,27.68
2023-02-22T14:48:33.203Z,27.25
2023-02-22T14:51:21.369Z,27.57
2023-02-22T14:53:58.251Z,28.19
2023-02-22T15:00:50.486Z,28.88
2023-02-22T15:03:33.226Z,29.35
2023-02-22T15:10:22.429Z,29.23
2023-02-22T15:13:03.207Z,29.91
2023-02-22T15:15:31.652Z,30.01
2023-02-22T15:17:59.173Z,29.95
2023-02-22T15:20:27.420Z,29.93
2023-02-22T15:23:00.418Z,30.20
2023-02-22T15:25:30.801Z,30.02
2023-02-22T15:28:05.128Z,30.41
2023-02-22T15:30:33.602Z,30.50
2023-02-22T15:33:20.518Z,30.61
2023-02-22T15:35:57.800Z,30.54
2023-02-22T15:38:30.752Z,30.87
2023-02-22T15:45:05.347Z,31.49
2023-02-22T15:47:32.804Z,31.68
2023-02-22T15:50:24.861Z,31.95
2023-02-22T15:53:06.674Z,32.38
2023-02-22T15:55:47.471Z,32.92
2023-02-22T15:58:27.331Z,33.09
2023-02-22T16:05:10.433Z,33.98
2023-02-22T16:07:46.681Z,34.34
2023-02-22T16:10:31.546Z,34.65
2023-02-22T16:13:31.628Z,34.82
2023-02-22T16:16:03.818Z,35.44
2023-02-22T16:22:37.078Z,35.92
2023-02-22T16:25:19.586Z,36.24
2023-02-22T16:28:00.189Z,36.66
2023-02-22T16:30:45.375Z,36.72
2023-02-22T16:33:12.594Z,37.02
2023-02-22T16:39:40.864Z,36.92
2023-02-22T16:42:09.244Z,37.34
2023-02-22T16:44:36.401Z,37.50
2023-02-22T16:47:03.766Z,37.66
2023-02-22T16:49:30.935Z,37.97
2023-02-22T16:56:09.661Z,38.25
2023-02-22T17:06:49.370Z,38.81
2023-02-22T17:13:23.546Z,39.19
2023-02-22T17:15:53.168Z,39.21
2023-02-22T17:22:26.255Z,39.53
2023-02-22T17:24:53.506Z,39.53
2023-02-22T17:27:20.829Z,39.65
2023-02-22T17:29:49.318Z,39.67
2023-02-22T17:32:16.885Z,39.90
2023-02-22T17:34:44.059Z,39.85
2023-02-22T17:37:11.355Z,39.97
2023-02-22T17:39:38.617Z,40.34
2023-02-22T17:46:08.141Z,40.79
2023-02-22T17:52:35.394Z,41.15
2023-02-22T17:59:02.240Z,41.58
2023-02-22T18:01:32.177Z,41.57
2023-02-22T18:04:02.939Z,41.50
2023-02-22T18:10:40.203Z,42.12
2023-02-22T18:13:17.342Z,42.08
2023-02-22T18:15:47.260Z,42.13
2023-02-22T18:18:17.881Z,42.52
2023-02-22T18:24:51.433Z,42.47
2023-02-22T18:27:18.803Z,42.74
2023-02-22T18:29:46.076Z,42.84
2023-02-22T18:32:13.700Z,42.97
2023-02-22T18:34:41.068Z,43.04
2023-02-22T18:37:08.301Z,43.28
2023-02-22T18:39:35.742Z,43.04
2023-02-22T18:42:03.066Z,43.16
2023-02-22T18:44:30.398Z,43.15
2023-02-22T18:51:09.362Z,43.62
2023-02-22T18:53:38.180Z,43.32
2023-02-22T18:56:18.418Z,43.23
2023-02-22T18:58:46.103Z,43.17
2023-02-22T19:01:18.737Z,43.05
2023-02-22T19:07:52.301Z,43.09
2023-02-22T19:11:20.648Z,43.13
2023-02-22T19:14:04.629Z,42.81
2023-02-22T19:20:38.348Z,42.69
2023-02-22T19:23:05.633Z,42.86
2023-02-22T19:25:33.279Z,42.89
2023-02-22T19:28:03.529Z,43.10
2023-02-22T19:30:30.954Z,43.46
2023-02-22T19:32:58.421Z,43.33
2023-02-22T19:35:25.846Z,43.34
2023-02-22T19:38:05.818Z,43.46
2023-02-22T19:40:33.210Z,43.52
2023-02-22T19:43:00.622Z,43.55
2023-02-22T19:45:30.500Z,43.81
2023-02-22T19:47:57.917Z,44.27
2023-02-22T19:50:25.425Z,44.06
2023-02-22T19:52:52.769Z,43.88
2023-02-22T19:55:19.963Z,43.99
2023-02-22T19:57:47.505Z,44.37
2023-02-22T20:00:15.421Z,44.22
2023-02-22T20:02:43.036Z,44.43
2023-02-22T20:05:12.006Z,44.49
2023-02-22T20:07:39.598Z,44.93
2023-02-22T20:10:07.254Z,44.83
2023-02-22T20:12:34.633Z,44.96
2023-02-22T20:15:01.826Z,45.12
2023-02-22T20:17:29.067Z,45.04
2023-02-22T20:19:56.274Z,44.89
2023-02-22T20:22:23.825Z,45.09
2023-02-22T20:24:51.634Z,45.24
2023-02-22T20:27:19.166Z,45.33
2023-02-22T20:29:46.491Z,45.27
2023-02-22T20:32:17.060Z,45.21
2023-02-22T20:34:47.745Z,45.36
2023-02-22T20:37:14.971Z,45.55
2023-02-22T20:43:54.121Z,45.81
2023-02-22T20:46:23.789Z,45.95
2023-02-22T20:48:56.773Z,45.90
2023-02-22T20:51:24.903Z,46.37
2023-02-22T20:53:52.845Z,46.34
2023-02-22T20:56:24.836Z,46.53
2023-02-22T20:58:52.214Z,46.67
2023-02-22T21:01:21.171Z,46.69
2023-02-22T21:08:06.489Z,47.09
2023-02-22T21:10:45.079Z,47.20
2023-02-22T21:13:13.630Z,47.39
2023-02-22T21:15:41.089Z,47.39
2023-02-22T21:18:08.333Z,47.32
2023-02-22T21:20:36.774Z,47.53
2023-02-22T21:23:04.399Z,47.38
2023-02-22T21:25:32.127Z,47.58
2023-02-22T21:27:59.649Z,47.65
2023-02-22T21:30:27.966Z,47.49
2023-02-22T21:32:55.735Z,47.77
2023-02-22T21:35:25.565Z,47.80
2023-02-22T21:37:52.863Z,47.88
2023-02-22T21:40:20.349Z,48.09
2023-02-22T21:42:50.516Z,48.16
2023-02-22T21:45:20.796Z,48.18
2023-02-22T21:47:49.767Z,48.05
2023-02-22T21:50:19.451Z,48.19
2023-02-22T21:52:48.636Z,48.30
2023-02-22T21:55:16.426Z,48.09
2023-02-22T21:57:43.688Z,48.33
2023-02-22T22:00:12.662Z,48.56
2023-02-22T22:02:39.939Z,48.58
2023-02-22T22:05:08.000Z,48.71
2023-02-22T22:07:35.279Z,48.68
2023-02-22T22:14:11.250Z,48.86
2023-02-22T22:16:38.511Z,48.78
2023-02-22T22:19:05.783Z,49.20
2023-02-22T22:21:32.972Z,49.21
2023-02-22T22:24:00.339Z,49.45
2023-02-22T22:26:27.750Z,49.76
2023-02-22T22:28:59.449Z,50.17
2023-02-22T22:31:27.981Z,50.09
2023-02-22T22:33:56.707Z,50.50
2023-02-22T22:36:26.806Z,50.07
2023-02-22T22:38:55.404Z,49.99
2023-02-22T22:41:23.476Z,50.34
2023-02-22T22:43:51.192Z,50.27
2023-02-22T22:46:18.665Z,50.80
2023-02-22T22:48:46.419Z,50.56
2023-02-22T22:51:20.949Z,51.00
2023-02-22T22:53:50.291Z,51.01
2023-02-22T22:56:22.688Z,51.51
2023-02-22T22:58:58.810Z,51.89
2023-02-22T23:01:30.530Z,51.81
2023-02-22T23:04:04.637Z,51.51
2023-02-22T23:06:44.953Z,51.24
2023-02-22T23:09:18.178Z,51.15
2023-02-22T23:11:51.200Z,51.32
2023-02-22T23:18:18.113Z,51.05
2023-02-22T23:20:45.492Z,51.05
2023-02-22T23:23:12.764Z,51.11
2023-02-22T23:25:42.756Z,51.22
2023-02-22T23:28:10.241Z,51.62
2023-02-22T23:30:38.501Z,51.27
2023-02-22T23:33:05.773Z,50.88
2023-02-22T23:35:33.176Z,51.11
2023-02-22T23:38:00.734Z,50.85
2023-02-22T23:40:28.297Z,50.99
2023-02-22T23:42:55.647Z,51.17
2023-02-22T23:45:24.485Z,51.00
2023-02-22T23:47:57.055Z,51.04
2023-02-22T23:50:27.980Z,51.07
2023-02-22T23:53:01.046Z,51.05
2023-02-22T23:55:32.681Z,51.45
2023-02-22T23:58:00.708Z,51.37
